sensor_id;sensor_type;location;lat;lon;timestamp;pressure;altitude;pressure_sealevel;temperature;humidity
73003;BME280;61184;54.356;-8.550;2023-02-22T00:00:06;100866.77;;;21.23;34.35
73003;BME280;61184;54.356;-8.550;2023-02-22T00:02:33;100869.58;;;21.18;34.34
73003;BME280;61184;54.356;-8.550;2023-02-22T00:04:55;100867.74;;;20.92;34.34
73003;BME280;61184;54.356;-8.550;2023-02-22T00:07:21;100872.50;;;21.07;34.43
73003;BME280;61184;54.356;-8.550;2023-02-22T00:09:46;100872.43;;;20.97;34.55
73003;BME280;61184;54.356;-8.550;2023-02-22T00:12:14;100867.68;;;20.84;34.70
73003;BME280;61184;54.356;-8.550;2023-02-22T00:14:39;100874.00;;;20.99;34.46
73003;BME280;61184;54.356;-8.550;2023-02-22T00:17:02;100870.80;;;21.12;34.21
73003;BME280;61184;54.356;-8.550;2023-02-22T00:19:28;100871.05;;;20.88;34.55
73003;BME280;61184;54.356;-8.550;2023-02-22T00:21:53;100877.20;;;21.02;34.37
73003;BME280;61184;54.356;-8.550;2023-02-22T00:24:20;100877.97;;;21.05;34.26
73003;BME280;61184;54.356;-8.550;2023-02-22T00:26:46;100880.00;;;20.86;34.46
73003;BME280;61184;54.356;-8.550;2023-02-22T00:29:10;100885.53;;;20.82;34.47
73003;BME280;61184;54.356;-8.550;2023-02-22T00:31:36;100888.89;;;20.86;34.42
73003;BME280;61184;54.356;-8.550;2023-02-22T00:34:13;100898.26;;;21.05;34.15
73003;BME280;61184;54.356;-8.550;2023-02-22T00:36:31;100894.90;;;20.90;34.30
73003;BME280;61184;54.356;-8.550;2023-02-22T00:38:51;100899.33;;;20.71;34.55
73003;BME280;61184;54.356;-8.550;2023-02-22T00:41:17;100912.13;;;20.76;34.51
73003;BME280;61184;54.356;-8.550;2023-02-22T00:43:42;100912.18;;;20.62;34.65
73003;BME280;61184;54.356;-8.550;2023-02-22T00:46:09;100913.21;;;20.67;34.50
73003;BME280;61184;54.356;-8.550;2023-02-22T00:48:36;100913.99;;;20.67;34.59
73003;BME280;61184;54.356;-8.550;2023-02-22T00:51:01;100911.72;;;20.58;34.67
73003;BME280;61184;54.356;-8.550;2023-02-22T00:53:26;100909.01;;;20.60;34.53
73003;BME280;61184;54.356;-8.550;2023-02-22T00:55:50;100916.23;;;20.99;34.32
73003;BME280;61184;54.356;-8.550;2023-02-22T00:58:15;100914.30;;;20.29;34.93
73003;BME280;61184;54.356;-8.550;2023-02-22T01:01:01;100915.02;;;20.29;34.87
73003;BME280;61184;54.356;-8.550;2023-02-22T01:03:07;100918.79;;;20.29;34.86
73003;BME280;61184;54.356;-8.550;2023-02-22T01:05:31;100917.79;;;20.47;34.58
73003;BME280;61184;54.356;-8.550;2023-02-22T01:07:58;100921.29;;;20.22;34.57
73003;BME280;61184;54.356;-8.550;2023-02-22T01:10:23;100935.02;;;20.56;34.77
73003;BME280;61184;54.356;-8.550;2023-02-22T01:12:48;100935.18;;;20.29;34.75
73003;BME280;61184;54.356;-8.550;2023-02-22T01:15:14;100935.85;;;20.57;34.72
73003;BME280;61184;54.356;-8.550;2023-02-22T01:17:39;100933.44;;;20.45;34.48
73003;BME280;61184;54.356;-8.550;2023-02-22T01:20:04;100935.71;;;20.48;34.43
73003;BME280;61184;54.356;-8.550;2023-02-22T01:22:29;100936.92;;;20.45;34.43
73003;BME280;61184;54.356;-8.550;2023-02-22T01:24:54;100936.82;;;20.42;34.47
73003;BME280;61184;54.356;-8.550;2023-02-22T01:27:19;100937.93;;;20.32;34.53
73003;BME280;61184;54.356;-8.550;2023-02-22T01:29:48;100938.70;;;20.49;34.30
73003;BME280;61184;54.356;-8.550;2023-02-22T01:32:10;100938.91;;;20.45;34.34
73003;BME280;61184;54.356;-8.550;2023-02-22T01:34:42;100934.36;;;20.38;34.43
73003;BME280;61184;54.356;-8.550;2023-02-22T01:37:01;100932.86;;;20.73;34.28
73003;BME280;61184;54.356;-8.550;2023-02-22T01:39:52;100937.69;;;20.28;34.52
73003;BME280;61184;54.356;-8.550;2023-02-22T01:41:52;100943.61;;;20.26;34.49
73003;BME280;61184;54.356;-8.550;2023-02-22T01:44:23;100946.36;;;20.27;34.50
73003;BME280;61184;54.356;-8.550;2023-02-22T01:46:43;100945.61;;;20.74;34.14
73003;BME280;61184;54.356;-8.550;2023-02-22T01:49:09;100952.21;;;20.45;34.52
73003;BME280;61184;54.356;-8.550;2023-02-22T01:51:37;100955.67;;;20.21;34.47
73003;BME280;61184;54.356;-8.550;2023-02-22T01:54:05;100954.95;;;20.56;34.35
73003;BME280;61184;54.356;-8.550;2023-02-22T01:56:27;100955.42;;;20.55;34.33
73003;BME280;61184;54.356;-8.550;2023-02-22T01:58:54;100958.03;;;20.50;34.38
73003;BME280;61184;54.356;-8.550;2023-02-22T02:01:17;100954.89;;;20.12;34.55
73003;BME280;61184;54.356;-8.550;2023-02-22T02:03:57;100955.56;;;20.13;34.81
73003;BME280;61184;54.356;-8.550;2023-02-22T02:06:16;100959.42;;;20.23;34.41
73003;BME280;61184;54.356;-8.550;2023-02-22T02:08:38;100962.52;;;20.25;34.32
73003;BME280;61184;54.356;-8.550;2023-02-22T02:11:22;100965.31;;;20.40;34.42
73003;BME280;61184;54.356;-8.550;2023-02-22T02:13:29;100966.42;;;20.35;34.50
73003;BME280;61184;54.356;-8.550;2023-02-22T02:15:49;100962.40;;;20.61;34.43
73003;BME280;61184;54.356;-8.550;2023-02-22T02:18:24;100962.60;;;20.68;34.02
73003;BME280;61184;54.356;-8.550;2023-02-22T02:20:47;100962.86;;;20.39;34.35
73003;BME280;61184;54.356;-8.550;2023-02-22T02:25:42;100962.29;;;20.56;34.09
73003;BME280;61184;54.356;-8.550;2023-02-22T02:30:51;100959.33;;;20.28;34.79
73003;BME280;61184;54.356;-8.550;2023-02-22T02:33:05;100964.84;;;20.36;34.35
73003;BME280;61184;54.356;-8.550;2023-02-22T02:35:19;100965.33;;;20.01;34.48
73003;BME280;61184;54.356;-8.550;2023-02-22T02:37:45;100965.65;;;20.62;34.26
73003;BME280;61184;54.356;-8.550;2023-02-22T02:40:19;100972.28;;;20.18;34.49
73003;BME280;61184;54.356;-8.550;2023-02-22T02:42:54;100981.23;;;20.18;34.19
73003;BME280;61184;54.356;-8.550;2023-02-22T02:44:57;100981.31;;;20.16;34.88
73003;BME280;61184;54.356;-8.550;2023-02-22T02:47:26;100982.40;;;20.53;34.01
73003;BME280;61184;54.356;-8.550;2023-02-22T02:49:49;100984.48;;;19.97;34.39
73003;BME280;61184;54.356;-8.550;2023-02-22T02:52:12;100988.55;;;20.48;34.36
73003;BME280;61184;54.356;-8.550;2023-02-22T02:54:37;100987.69;;;20.33;34.18
73003;BME280;61184;54.356;-8.550;2023-02-22T02:57:02;100988.71;;;20.03;34.58
73003;BME280;61184;54.356;-8.550;2023-02-22T02:59:30;100986.95;;;20.23;34.31
73003;BME280;61184;54.356;-8.550;2023-02-22T03:02:01;100984.33;;;20.59;34.13
73003;BME280;61184;54.356;-8.550;2023-02-22T03:11:44;100987.76;;;19.91;34.35
73003;BME280;61184;54.356;-8.550;2023-02-22T03:14:05;100993.10;;;20.22;34.22
73003;BME280;61184;54.356;-8.550;2023-02-22T03:16:31;100996.90;;;19.90;34.69
73003;BME280;61184;54.356;-8.550;2023-02-22T03:18:55;101005.38;;;20.23;34.53
73003;BME280;61184;54.356;-8.550;2023-02-22T03:21:24;101010.62;;;20.36;34.30
73003;BME280;61184;54.356;-8.550;2023-02-22T03:23:57;101006.99;;;20.24;34.50
73003;BME280;61184;54.356;-8.550;2023-02-22T03:26:12;101007.23;;;20.30;34.36
73003;BME280;61184;54.356;-8.550;2023-02-22T03:28:35;101006.37;;;19.97;34.48
73003;BME280;61184;54.356;-8.550;2023-02-22T03:31:04;101006.63;;;20.13;34.24
73003;BME280;61184;54.356;-8.550;2023-02-22T03:33:38;101009.86;;;19.88;34.59
73003;BME280;61184;54.356;-8.550;2023-02-22T03:35:52;101007.71;;;20.07;34.33
73003;BME280;61184;54.356;-8.550;2023-02-22T03:38:17;101009.07;;;20.11;34.57
73003;BME280;61184;54.356;-8.550;2023-02-22T03:40:43;101013.37;;;19.97;34.66
73003;BME280;61184;54.356;-8.550;2023-02-22T03:43:08;101015.08;;;20.11;34.56
73003;BME280;61184;54.356;-8.550;2023-02-22T03:45:31;101016.14;;;20.34;34.54
73003;BME280;61184;54.356;-8.550;2023-02-22T03:48:05;101013.76;;;19.68;34.44
73003;BME280;61184;54.356;-8.550;2023-02-22T03:50:25;101015.07;;;20.07;34.56
73003;BME280;61184;54.356;-8.550;2023-02-22T03:52:48;101009.68;;;19.94;34.41
73003;BME280;61184;54.356;-8.550;2023-02-22T03:55:14;101002.66;;;20.17;34.36
73003;BME280;61184;54.356;-8.550;2023-02-22T03:57:41;101002.50;;;20.18;34.34
73003;BME280;61184;54.356;-8.550;2023-02-22T04:00:06;101006.12;;;20.05;34.48
73003;BME280;61184;54.356;-8.550;2023-02-22T04:02:29;101006.09;;;19.97;34.26
73003;BME280;61184;54.356;-8.550;2023-02-22T04:05:04;101013.69;;;20.04;34.43
73003;BME280;61184;54.356;-8.550;2023-02-22T04:07:21;101015.63;;;19.83;34.51
73003;BME280;61184;54.356;-8.550;2023-02-22T04:09:48;101017.74;;;19.93;34.55
73003;BME280;61184;54.356;-8.550;2023-02-22T04:12:11;101020.88;;;19.74;34.56
73003;BME280;61184;54.356;-8.550;2023-02-22T04:14:37;101023.97;;;19.98;34.56
73003;BME280;61184;54.356;-8.550;2023-02-22T04:17:02;101023.42;;;19.88;34.59
73003;BME280;61184;54.356;-8.550;2023-02-22T04:19:27;101024.65;;;19.99;34.41
73003;BME280;61184;54.356;-8.550;2023-02-22T04:21:53;101022.80;;;19.98;34.47
73003;BME280;61184;54.356;-8.550;2023-02-22T04:24:18;101020.79;;;19.93;34.46
73003;BME280;61184;54.356;-8.550;2023-02-22T04:26:45;101021.18;;;19.75;34.37
73003;BME280;61184;54.356;-8.550;2023-02-22T04:29:09;101023.18;;;19.87;34.54
73003;BME280;61184;54.356;-8.550;2023-02-22T04:31:35;101022.11;;;19.65;34.46
73003;BME280;61184;54.356;-8.550;2023-02-22T04:34:01;101024.46;;;19.85;34.51
73003;BME280;61184;54.356;-8.550;2023-02-22T04:37:02;101021.71;;;19.95;34.42
73003;BME280;61184;54.356;-8.550;2023-02-22T04:38:52;101025.69;;;19.75;34.61
73003;BME280;61184;54.356;-8.550;2023-02-22T04:41:17;101031.44;;;19.85;34.46
73003;BME280;61184;54.356;-8.550;2023-02-22T04:43:53;101035.80;;;19.91;34.35
73003;BME280;61184;54.356;-8.550;2023-02-22T04:46:07;101034.42;;;19.85;34.41
73003;BME280;61184;54.356;-8.550;2023-02-22T04:48:33;101036.67;;;19.83;34.45
73003;BME280;61184;54.356;-8.550;2023-02-22T04:50:59;101035.79;;;20.07;34.44
73003;BME280;61184;54.356;-8.550;2023-02-22T04:53:25;101036.85;;;19.81;34.44
73003;BME280;61184;54.356;-8.550;2023-02-22T04:55:50;101037.55;;;19.92;34.29
73003;BME280;61184;54.356;-8.550;2023-02-22T04:58:16;101037.78;;;19.76;34.48
73003;BME280;61184;54.356;-8.550;2023-02-22T05:00:40;101042.66;;;19.68;34.60
73003;BME280;61184;54.356;-8.550;2023-02-22T05:03:06;101044.81;;;19.75;34.48
73003;BME280;61184;54.356;-8.550;2023-02-22T05:05:32;101048.57;;;19.69;34.53
73003;BME280;61184;54.356;-8.550;2023-02-22T05:07:57;101049.51;;;19.79;34.42
73003;BME280;61184;54.356;-8.550;2023-02-22T05:10:22;101047.66;;;19.68;34.56
73003;BME280;61184;54.356;-8.550;2023-02-22T05:13:04;101042.85;;;19.64;34.56
73003;BME280;61184;54.356;-8.550;2023-02-22T05:15:17;101042.16;;;19.59;34.61
73003;BME280;61184;54.356;-8.550;2023-02-22T05:18:01;101048.76;;;19.54;34.67
73003;BME280;61184;54.356;-8.550;2023-02-22T05:20:05;101052.54;;;19.67;34.48
73003;BME280;61184;54.356;-8.550;2023-02-22T05:22:30;101050.20;;;19.71;34.40
73003;BME280;61184;54.356;-8.550;2023-02-22T05:24:59;101059.88;;;19.80;34.29
73003;BME280;61184;54.356;-8.550;2023-02-22T05:27:21;101069.48;;;19.38;34.50
73003;BME280;61184;54.356;-8.550;2023-02-22T05:29:46;101069.33;;;19.61;34.49
73003;BME280;61184;54.356;-8.550;2023-02-22T05:32:11;101069.97;;;19.59;34.53
73003;BME280;61184;54.356;-8.550;2023-02-22T05:34:37;101075.00;;;19.67;34.40
73003;BME280;61184;54.356;-8.550;2023-02-22T05:37:03;101079.45;;;19.65;34.41
73003;BME280;61184;54.356;-8.550;2023-02-22T05:39:28;101081.12;;;19.54;34.54
73003;BME280;61184;54.356;-8.550;2023-02-22T05:41:54;101083.82;;;19.78;34.54
73003;BME280;61184;54.356;-8.550;2023-02-22T05:44:19;101088.57;;;19.52;34.54
73003;BME280;61184;54.356;-8.550;2023-02-22T05:46:50;101088.05;;;19.68;34.30
73003;BME280;61184;54.356;-8.550;2023-02-22T05:49:10;101087.29;;;19.38;34.73
73003;BME280;61184;54.356;-8.550;2023-02-22T05:51:35;101089.50;;;19.37;34.70
73003;BME280;61184;54.356;-8.550;2023-02-22T05:54:01;101091.81;;;19.43;34.62
73003;BME280;61184;54.356;-8.550;2023-02-22T05:56:29;101091.87;;;19.64;34.62
73003;BME280;61184;54.356;-8.550;2023-02-22T05:59:01;101090.37;;;19.41;34.62
73003;BME280;61184;54.356;-8.550;2023-02-22T06:01:20;101090.41;;;19.62;34.62
73003;BME280;61184;54.356;-8.550;2023-02-22T06:03:45;101089.51;;;19.46;34.49
73003;BME280;61184;54.356;-8.550;2023-02-22T06:06:08;101089.52;;;19.42;34.53
73003;BME280;61184;54.356;-8.550;2023-02-22T06:08:33;101092.93;;;19.35;34.63
73003;BME280;61184;54.356;-8.550;2023-02-22T06:10:59;101095.07;;;19.39;34.56
73003;BME280;61184;54.356;-8.550;2023-02-22T06:13:26;101097.13;;;19.25;34.74
73003;BME280;61184;54.356;-8.550;2023-02-22T06:15:53;101103.61;;;19.68;34.79
73003;BME280;61184;54.356;-8.550;2023-02-22T06:18:16;101107.56;;;19.18;34.81
73003;BME280;61184;54.356;-8.550;2023-02-22T06:20:41;101105.09;;;19.64;34.47
73003;BME280;61184;54.356;-8.550;2023-02-22T06:23:07;101109.79;;;19.30;34.59
73003;BME280;61184;54.356;-8.550;2023-02-22T06:25:32;101112.14;;;19.31;34.55
73003;BME280;61184;54.356;-8.550;2023-02-22T06:27:58;101116.28;;;19.71;34.67
73003;BME280;61184;54.356;-8.550;2023-02-22T06:30:25;101115.13;;;19.49;34.62
73003;BME280;61184;54.356;-8.550;2023-02-22T06:32:48;101115.00;;;19.07;34.54
73003;BME280;61184;54.356;-8.550;2023-02-22T06:35:16;101115.44;;;19.16;34.71
73003;BME280;61184;54.356;-8.550;2023-02-22T06:37:40;101117.48;;;19.12;34.75
73003;BME280;61184;54.356;-8.550;2023-02-22T06:40:09;101118.35;;;19.60;34.43
73003;BME280;61184;54.356;-8.550;2023-02-22T06:42:31;101122.02;;;19.24;34.54
73003;BME280;61184;54.356;-8.550;2023-02-22T06:44:56;101129.22;;;19.19;34.63
73003;BME280;61184;54.356;-8.550;2023-02-22T06:47:21;101132.71;;;19.26;34.53
73003;BME280;61184;54.356;-8.550;2023-02-22T06:49:52;101137.05;;;19.57;34.41
73003;BME280;61184;54.356;-8.550;2023-02-22T06:52:12;101141.02;;;19.20;34.58
73003;BME280;61184;54.356;-8.550;2023-02-22T06:54:38;101139.51;;;19.43;34.57
73003;BME280;61184;54.356;-8.550;2023-02-22T06:57:03;101141.66;;;19.17;34.55
73003;BME280;61184;54.356;-8.550;2023-02-22T06:59:44;101144.14;;;19.28;34.43
73003;BME280;61184;54.356;-8.550;2023-02-22T07:02:18;101145.46;;;19.11;34.63
73003;BME280;61184;54.356;-8.550;2023-02-22T07:04:20;101146.24;;;19.24;34.46
73003;BME280;61184;54.356;-8.550;2023-02-22T07:06:46;101147.80;;;19.17;34.48
73003;BME280;61184;54.356;-8.550;2023-02-22T07:09:11;101147.36;;;19.18;34.48
73003;BME280;61184;54.356;-8.550;2023-02-22T07:11:37;101150.02;;;19.29;34.63
73003;BME280;61184;54.356;-8.550;2023-02-22T07:14:02;101152.82;;;19.44;34.72
73003;BME280;61184;54.356;-8.550;2023-02-22T07:16:27;101155.73;;;19.07;34.95
73003;BME280;61184;54.356;-8.550;2023-02-22T07:18:56;101158.08;;;19.17;34.80
73003;BME280;61184;54.356;-8.550;2023-02-22T07:21:19;101161.38;;;19.06;34.60
73003;BME280;61184;54.356;-8.550;2023-02-22T07:26:14;101169.39;;;19.27;34.62
73003;BME280;61184;54.356;-8.550;2023-02-22T07:28:37;101173.36;;;19.15;34.74
73003;BME280;61184;54.356;-8.550;2023-02-22T07:31:01;101176.27;;;19.53;34.26
73003;BME280;61184;54.356;-8.550;2023-02-22T07:33:26;101181.68;;;19.42;34.13
73003;BME280;61184;54.356;-8.550;2023-02-22T07:35:51;101181.66;;;19.74;34.13
73003;BME280;61184;54.356;-8.550;2023-02-22T07:38:18;101182.97;;;20.17;34.06
73003;BME280;61184;54.356;-8.550;2023-02-22T07:40:42;101184.15;;;19.73;33.96
73003;BME280;61184;54.356;-8.550;2023-02-22T07:43:19;101183.01;;;20.13;33.57
73003;BME280;61184;54.356;-8.550;2023-02-22T07:45:34;101181.89;;;20.50;33.08
73003;BME280;61184;54.356;-8.550;2023-02-22T07:48:00;101180.34;;;20.84;32.63
73003;BME280;61184;54.356;-8.550;2023-02-22T07:50:26;101185.68;;;21.08;32.35
73003;BME280;61184;54.356;-8.550;2023-02-22T07:52:50;101186.92;;;20.68;32.59
73003;BME280;61184;54.356;-8.550;2023-02-22T07:57:40;101192.42;;;21.04;32.55
73003;BME280;61184;54.356;-8.550;2023-02-22T08:00:21;101197.20;;;20.93;32.41
73003;BME280;61184;54.356;-8.550;2023-02-22T08:02:32;101198.69;;;20.67;32.50
73003;BME280;61184;54.356;-8.550;2023-02-22T08:04:57;101201.23;;;20.94;32.46
73003;BME280;61184;54.356;-8.550;2023-02-22T08:07:23;101203.99;;;21.04;32.39
73003;BME280;61184;54.356;-8.550;2023-02-22T08:09:47;101207.54;;;21.24;32.50
73003;BME280;61184;54.356;-8.550;2023-02-22T08:12:13;101211.68;;;20.86;32.46
73003;BME280;61184;54.356;-8.550;2023-02-22T08:14:38;101214.84;;;21.32;32.55
73003;BME280;61184;54.356;-8.550;2023-02-22T08:17:09;101215.32;;;20.78;32.71
73003;BME280;61184;54.356;-8.550;2023-02-22T08:19:43;101214.34;;;20.81;32.73
73003;BME280;61184;54.356;-8.550;2023-02-22T08:22:08;101218.02;;;20.74;32.84
73003;BME280;61184;54.356;-8.550;2023-02-22T08:24:20;101222.69;;;20.60;32.93
73003;BME280;61184;54.356;-8.550;2023-02-22T08:26:46;101229.54;;;20.71;32.69
73003;BME280;61184;54.356;-8.550;2023-02-22T08:29:11;101232.33;;;20.53;32.95
73003;BME280;61184;54.356;-8.550;2023-02-22T08:31:37;101239.05;;;20.57;32.87
73003;BME280;61184;54.356;-8.550;2023-02-22T08:34:02;101250.07;;;20.96;32.94
73003;BME280;61184;54.356;-8.550;2023-02-22T08:36:31;101247.94;;;20.92;32.96
73003;BME280;61184;54.356;-8.550;2023-02-22T08:38:53;101246.14;;;20.21;33.19
73003;BME280;61184;54.356;-8.550;2023-02-22T08:41:19;101242.46;;;20.15;33.19
73003;BME280;61184;54.356;-8.550;2023-02-22T08:43:47;101249.29;;;20.18;33.50
73003;BME280;61184;54.356;-8.550;2023-02-22T08:46:09;101252.43;;;19.98;33.46
73003;BME280;61184;54.356;-8.550;2023-02-22T08:48:35;101257.28;;;20.00;33.29
73003;BME280;61184;54.356;-8.550;2023-02-22T08:51:01;101256.35;;;19.96;33.50
73003;BME280;61184;54.356;-8.550;2023-02-22T08:54:00;101259.69;;;20.19;33.10
73003;BME280;61184;54.356;-8.550;2023-02-22T08:55:52;101257.95;;;20.09;33.07
73003;BME280;61184;54.356;-8.550;2023-02-22T08:58:17;101258.56;;;19.92;32.85
73003;BME280;61184;54.356;-8.550;2023-02-22T09:00:42;101260.22;;;20.12;32.91
73003;BME280;61184;54.356;-8.550;2023-02-22T09:03:10;101264.31;;;20.08;32.90
73003;BME280;61184;54.356;-8.550;2023-02-22T09:05:33;101269.65;;;20.17;32.71
73003;BME280;61184;54.356;-8.550;2023-02-22T09:08:02;101269.92;;;20.23;32.65
73003;BME280;61184;54.356;-8.550;2023-02-22T09:10:26;101273.16;;;20.03;32.94
73003;BME280;61184;54.356;-8.550;2023-02-22T09:12:49;101280.39;;;19.99;32.98
73003;BME280;61184;54.356;-8.550;2023-02-22T09:15:15;101280.75;;;20.46;32.65
73003;BME280;61184;54.356;-8.550;2023-02-22T09:17:40;101288.23;;;19.76;32.92
73003;BME280;61184;54.356;-8.550;2023-02-22T09:20:07;101285.21;;;20.23;32.68
73003;BME280;61184;54.356;-8.550;2023-02-22T09:22:34;101289.63;;;20.32;32.54
73003;BME280;61184;54.356;-8.550;2023-02-22T09:24:56;101308.63;;;20.47;32.71
73003;BME280;61184;54.356;-8.550;2023-02-22T09:27:22;101296.09;;;20.08;32.90
73003;BME280;61184;54.356;-8.550;2023-02-22T09:29:48;101295.22;;;19.79;33.22
73003;BME280;61184;54.356;-8.550;2023-02-22T09:32:15;101296.80;;;20.08;32.86
73003;BME280;61184;54.356;-8.550;2023-02-22T09:34:38;101297.31;;;20.02;32.92
73003;BME280;61184;54.356;-8.550;2023-02-22T09:37:06;101301.71;;;20.17;32.70
73003;BME280;61184;54.356;-8.550;2023-02-22T09:39:30;101307.76;;;19.82;32.87
73003;BME280;61184;54.356;-8.550;2023-02-22T09:42:03;101308.14;;;20.19;32.68
73003;BME280;61184;54.356;-8.550;2023-02-22T09:44:27;101312.75;;;20.10;32.78
73003;BME280;61184;54.356;-8.550;2023-02-22T09:46:47;101313.85;;;20.10;32.75
73003;BME280;61184;54.356;-8.550;2023-02-22T09:49:20;101313.81;;;20.06;32.85
73003;BME280;61184;54.356;-8.550;2023-02-22T09:51:41;101314.50;;;20.14;32.75
73003;BME280;61184;54.356;-8.550;2023-02-22T09:54:05;101313.41;;;20.29;32.91
73003;BME280;61184;54.356;-8.550;2023-02-22T09:56:29;101320.87;;;19.91;33.07
73003;BME280;61184;54.356;-8.550;2023-02-22T09:58:55;101331.73;;;20.30;33.15
73003;BME280;61184;54.356;-8.550;2023-02-22T10:01:47;101324.10;;;20.08;32.85
73003;BME280;61184;54.356;-8.550;2023-02-22T10:03:49;101325.30;;;20.01;32.94
73003;BME280;61184;54.356;-8.550;2023-02-22T10:06:34;101324.44;;;19.99;32.91
73003;BME280;61184;54.356;-8.550;2023-02-22T10:08:49;101323.16;;;20.36;32.75
73003;BME280;61184;54.356;-8.550;2023-02-22T10:11:08;101325.04;;;20.12;32.76
73003;BME280;61184;54.356;-8.550;2023-02-22T10:13:33;101329.24;;;20.15;32.73
73003;BME280;61184;54.356;-8.550;2023-02-22T10:15:55;101333.95;;;20.13;33.01
73003;BME280;61184;54.356;-8.550;2023-02-22T10:20:51;101343.04;;;19.78;33.20
73003;BME280;61184;54.356;-8.550;2023-02-22T10:23:15;101345.83;;;19.92;33.03
73003;BME280;61184;54.356;-8.550;2023-02-22T10:25:41;101350.99;;;19.75;33.20
73003;BME280;61184;54.356;-8.550;2023-02-22T10:28:02;101350.42;;;19.66;33.33
73003;BME280;61184;54.356;-8.550;2023-02-22T10:30:30;101357.89;;;19.78;33.14
73003;BME280;61184;54.356;-8.550;2023-02-22T10:32:54;101359.88;;;20.06;33.09
73003;BME280;61184;54.356;-8.550;2023-02-22T10:35:20;101366.81;;;19.90;33.03
73003;BME280;61184;54.356;-8.550;2023-02-22T10:38:15;101371.75;;;19.92;32.97
73003;BME280;61184;54.356;-8.550;2023-02-22T10:40:17;101375.18;;;19.96;32.93
73003;BME280;61184;54.356;-8.550;2023-02-22T10:42:32;101380.66;;;19.83;33.07
73003;BME280;61184;54.356;-8.550;2023-02-22T10:44:58;101381.68;;;19.45;33.00
73003;BME280;61184;54.356;-8.550;2023-02-22T10:47:23;101383.76;;;19.84;33.06
73003;BME280;61184;54.356;-8.550;2023-02-22T10:49:50;101385.48;;;19.97;32.93
73003;BME280;61184;54.356;-8.550;2023-02-22T10:52:21;101386.35;;;19.50;33.24
73003;BME280;61184;54.356;-8.550;2023-02-22T10:54:44;101397.39;;;19.94;32.99
73003;BME280;61184;54.356;-8.550;2023-02-22T10:57:06;101393.71;;;19.49;33.27
73003;BME280;61184;54.356;-8.550;2023-02-22T10:59:32;101392.16;;;19.93;33.01
73003;BME280;61184;54.356;-8.550;2023-02-22T11:01:56;101395.55;;;19.92;32.97
73003;BME280;61184;54.356;-8.550;2023-02-22T11:04:22;101402.87;;;19.86;33.00
73003;BME280;61184;54.356;-8.550;2023-02-22T11:06:49;101406.59;;;19.81;33.06
73003;BME280;61184;54.356;-8.550;2023-02-22T11:09:15;101406.46;;;19.89;32.96
73003;BME280;61184;54.356;-8.550;2023-02-22T11:11:39;101410.27;;;20.39;32.94
73003;BME280;61184;54.356;-8.550;2023-02-22T11:14:03;101419.78;;;19.52;33.09
73003;BME280;61184;54.356;-8.550;2023-02-22T11:16:32;101423.73;;;19.60;33.32
73003;BME280;61184;54.356;-8.550;2023-02-22T11:19:00;101426.78;;;19.93;32.86
73003;BME280;61184;54.356;-8.550;2023-02-22T11:21:21;101433.37;;;19.72;33.14
73003;BME280;61184;54.356;-8.550;2023-02-22T11:23:48;101441.13;;;20.00;33.13
73003;BME280;61184;54.356;-8.550;2023-02-22T11:26:15;101445.66;;;19.89;32.98
73003;BME280;61184;54.356;-8.550;2023-02-22T11:28:36;101447.34;;;19.94;32.90
73003;BME280;61184;54.356;-8.550;2023-02-22T11:31:13;101452.70;;;19.93;32.88
73003;BME280;61184;54.356;-8.550;2023-02-22T11:33:27;101453.34;;;19.48;33.10
73003;BME280;61184;54.356;-8.550;2023-02-22T11:36:03;101457.44;;;19.99;32.73
73003;BME280;61184;54.356;-8.550;2023-02-22T11:38:20;101460.05;;;19.62;33.15
73003;BME280;61184;54.356;-8.550;2023-02-22T11:41:15;101462.73;;;20.15;32.79
73003;BME280;61184;54.356;-8.550;2023-02-22T11:43:15;101470.16;;;19.71;33.05
73003;BME280;61184;54.356;-8.550;2023-02-22T11:45:34;101477.05;;;19.83;32.90
73003;BME280;61184;54.356;-8.550;2023-02-22T11:48:18;101479.40;;;19.65;33.04
73003;BME280;61184;54.356;-8.550;2023-02-22T11:50:29;101482.46;;;20.00;32.66
73003;BME280;61184;54.356;-8.550;2023-02-22T11:55:20;101496.48;;;19.89;32.74
73003;BME280;61184;54.356;-8.550;2023-02-22T11:57:52;101504.33;;;20.04;32.58
73003;BME280;61184;54.356;-8.550;2023-02-22T12:00:25;101513.21;;;20.03;32.57
73003;BME280;61184;54.356;-8.550;2023-02-22T12:02:50;101519.69;;;19.58;33.08
73003;BME280;61184;54.356;-8.550;2023-02-22T12:05:11;101516.98;;;19.88;32.79
73003;BME280;61184;54.356;-8.550;2023-02-22T12:07:42;101526.67;;;19.88;32.74
73003;BME280;61184;54.356;-8.550;2023-02-22T12:09:53;101530.91;;;19.96;32.66
73003;BME280;61184;54.356;-8.550;2023-02-22T12:12:20;101537.63;;;19.92;32.71
73003;BME280;61184;54.356;-8.550;2023-02-22T12:14:52;101541.90;;;19.86;32.53
73003;BME280;61184;54.356;-8.550;2023-02-22T12:17:24;101546.99;;;20.07;32.27
73003;BME280;61184;54.356;-8.550;2023-02-22T12:19:34;101549.64;;;20.34;32.23
73003;BME280;61184;54.356;-8.550;2023-02-22T12:22:06;101554.47;;;20.27;32.05
73003;BME280;61184;54.356;-8.550;2023-02-22T12:24:28;101559.02;;;20.30;32.06
73003;BME280;61184;54.356;-8.550;2023-02-22T12:26:50;101572.54;;;20.35;32.34
73003;BME280;61184;54.356;-8.550;2023-02-22T12:29:19;101582.02;;;20.53;32.16
73003;BME280;61184;54.356;-8.550;2023-02-22T12:31:41;101601.91;;;20.51;32.24
73003;BME280;61184;54.356;-8.550;2023-02-22T12:34:10;101613.63;;;19.97;32.60
73003;BME280;61184;54.356;-8.550;2023-02-22T12:36:36;101618.56;;;20.41;32.70
73003;BME280;61184;54.356;-8.550;2023-02-22T12:38:59;101626.66;;;20.13;32.76
73003;BME280;61184;54.356;-8.550;2023-02-22T12:41:26;101630.02;;;20.28;32.62
73003;BME280;61184;54.356;-8.550;2023-02-22T12:43:49;101625.98;;;19.82;32.91
73003;BME280;61184;54.356;-8.550;2023-02-22T12:46:16;101612.02;;;20.09;32.89
73003;BME280;61184;54.356;-8.550;2023-02-22T12:48:45;101614.43;;;19.99;33.02
73003;BME280;61184;54.356;-8.550;2023-02-22T12:51:12;101615.80;;;19.84;33.21